Time;durP1;ratioP1;P1;durP2;ratioP2;P2;SDS_P1;SDS_P2;PMS_P1;PMS_P2;Temp;Humidity;BMP_temperature;BMP_pressure;BME280_temperature;BME280_humidity;BME280_pressure;Samples;Min_cycle;Max_cycle;Signal;HPM_P1;HPM_P2
2022/11/01 00:01:48;;;;;;;26.60;16.02;;;13.30;92.00;;;;;;5079000;28;20039;-80
2022/11/01 00:04:13;;;;;;;26.00;15.63;;;13.40;92.00;;;;;;5078688;28;20122;-78
2022/11/01 00:06:39;;;;;;;22.13;14.77;;;13.40;91.80;;;;;;5095610;28;20109;-79
2022/11/01 00:09:05;;;;;;;23.80;14.95;;;13.40;91.80;;;;;;5095826;28;20093;-79
2022/11/01 00:11:31;;;;;;;20.77;13.82;;;13.40;91.60;;;;;;5078686;28;20048;-80
2022/11/01 00:13:57;;;;;;;17.88;14.60;;;13.50;91.50;;;;;;5078660;28;20112;-80
2022/11/01 00:16:23;;;;;;;23.63;13.32;;;13.50;90.90;;;;;;5095550;28;20044;-79
2022/11/01 00:18:49;;;;;;;24.65;14.30;;;13.60;90.60;;;;;;5112397;28;20043;-81
2022/11/01 00:21:15;;;;;;;23.38;14.23;;;13.70;90.60;;;;;;5078385;28;20072;-80
2022/11/01 00:23:41;;;;;;;26.60;16.63;;;13.70;90.50;;;;;;5078873;28;20173;-80
2022/11/01 00:26:08;;;;;;;22.02;13.43;;;13.70;90.40;;;;;;5095267;28;20035;-80
2022/11/01 00:28:34;;;;;;;23.98;15.10;;;13.70;90.60;;;;;;5095850;28;20048;-80
2022/11/01 00:31:00;;;;;;;20.88;14.60;;;13.70;90.10;;;;;;5095283;28;20368;-81
2022/11/01 00:33:26;;;;;;;24.05;16.23;;;13.80;90.30;;;;;;5079149;28;20052;-82
2022/11/01 00:35:52;;;;;;;18.15;13.15;;;13.70;90.20;;;;;;5095489;28;20063;-79
2022/11/01 00:38:18;;;;;;;21.00;12.50;;;13.70;90.20;;;;;;5112345;28;20481;-80
2022/11/01 00:40:44;;;;;;;25.10;13.85;;;13.70;90.20;;;;;;5111936;28;20591;-81
2022/11/01 00:43:11;;;;;;;24.73;14.57;;;13.70;90.20;;;;;;5095583;28;20100;-80
2022/11/01 00:45:37;;;;;;;17.58;13.02;;;13.70;90.10;;;;;;5112283;28;20061;-79
2022/11/01 00:48:03;;;;;;;21.10;13.68;;;13.70;89.80;;;;;;5078972;28;20433;-80
2022/11/01 00:50:29;;;;;;;17.48;11.93;;;13.70;90.10;;;;;;5095749;28;20495;-81
2022/11/01 00:52:54;;;;;;;22.50;12.48;;;13.70;89.90;;;;;;5079477;28;20044;-79
2022/11/01 00:55:20;;;;;;;20.23;11.95;;;13.80;89.80;;;;;;5082518;28;20093;-80
2022/11/01 00:57:46;;;;;;;19.55;11.60;;;13.80;89.70;;;;;;5099398;28;20131;-80
2022/11/01 01:00:14;;;;;;;20.27;12.02;;;13.80;89.60;;;;;;5099017;28;20043;-79
2022/11/01 01:02:40;;;;;;;19.17;11.85;;;13.90;89.30;;;;;;5099070;28;20059;-79
2022/11/01 01:05:07;;;;;;;19.00;11.57;;;13.90;89.30;;;;;;5099070;28;20074;-79
2022/11/01 01:07:33;;;;;;;17.58;11.18;;;14.00;89.60;;;;;;5099098;28;20489;-80
2022/11/01 01:09:58;;;;;;;16.73;10.70;;;14.00;89.30;;;;;;5098836;28;20031;-80
2022/11/01 01:12:24;;;;;;;18.88;10.95;;;14.00;89.50;;;;;;5098876;28;20180;-80
2022/11/01 01:14:50;;;;;;;18.60;10.65;;;14.00;89.50;;;;;;5081818;28;20149;-80
2022/11/01 01:17:16;;;;;;;16.40;9.98;;;14.00;89.50;;;;;;5098748;28;20040;-79
2022/11/01 01:19:42;;;;;;;15.38;10.40;;;14.00;89.50;;;;;;5115743;28;20075;-80
2022/11/01 01:22:08;;;;;;;18.23;10.68;;;14.10;89.50;;;;;;5065225;28;20078;-80
2022/11/01 01:24:33;;;;;;;17.35;10.93;;;14.10;89.60;;;;;;5081602;28;20472;-78
2022/11/01 01:26:59;;;;;;;17.58;10.57;;;14.10;89.80;;;;;;5115595;28;20035;-79
2022/11/01 01:29:25;;;;;;;19.83;11.30;;;14.00;89.70;;;;;;5098710;28;20043;-80
2022/11/01 01:31:50;;;;;;;20.13;11.23;;;14.10;89.90;;;;;;5081392;28;20056;-81
2022/11/01 01:34:17;;;;;;;20.52;10.45;;;14.00;89.90;;;;;;5115227;28;20142;-81
2022/11/01 01:36:44;;;;;;;17.50;10.55;;;14.00;89.90;;;;;;5115442;28;20040;-81
2022/11/01 01:39:10;;;;;;;18.15;10.82;;;14.00;90.00;;;;;;5115362;28;20504;-80
2022/11/01 01:44:39;;;;;;;;;;;14.00;90.30;;;;;;5101354;28;20043;-78
2022/11/01 01:47:05;;;;;;;13.07;9.33;;;14.00;90.40;;;;;;5098207;28;20369;-81
2022/11/01 01:49:31;;;;;;;19.15;10.80;;;14.00;90.30;;;;;;5081402;28;20272;-80
2022/11/01 01:51:57;;;;;;;16.20;9.05;;;14.00;90.50;;;;;;5098290;28;20031;-82
2022/11/01 01:54:23;;;;;;;18.60;10.40;;;14.00;90.50;;;;;;5098302;28;20047;-81
2022/11/01 01:56:49;;;;;;;17.58;10.57;;;14.00;90.40;;;;;;5081186;28;20515;-82
2022/11/01 01:59:14;;;;;;;18.45;9.10;;;14.00;90.20;;;;;;5081159;28;20055;-81
2022/11/01 02:01:40;;;;;;;16.42;10.15;;;14.00;90.20;;;;;;5064362;28;20039;-82
2022/11/01 02:04:23;;;;;;;16.10;9.88;;;14.00;90.30;;;;;;5114680;28;20072;-81
2022/11/01 02:06:49;;;;;;;21.33;10.35;;;14.10;90.30;;;;;;5114179;28;20039;-78
2022/11/01 02:09:16;;;;;;;13.07;9.82;;;14.10;90.20;;;;;;5097699;28;20043;-82
2022/11/01 02:11:42;;;;;;;14.23;8.75;;;14.10;90.20;;;;;;5098014;28;20043;-81
2022/11/01 02:14:08;;;;;;;14.32;9.02;;;14.10;90.20;;;;;;5097692;28;20039;-81
2022/11/01 02:16:40;;;;;;;12.32;9.50;;;14.10;90.20;;;;;;5097767;28;20062;-81
2022/11/01 02:19:45;;;;;;;14.73;8.77;;;14.20;90.00;;;;;;5097933;28;20040;-82
2022/11/01 02:22:34;;;;;;;16.55;9.45;;;14.20;90.00;;;;;;5097552;28;20123;-80
2022/11/01 02:25:24;;;;;;;15.50;8.90;;;14.30;90.10;;;;;;5080147;28;20044;-80
2022/11/01 02:28:19;;;;;;;14.32;9.25;;;14.20;90.00;;;;;;5114670;28;20548;-82
2022/11/01 02:31:02;;;;;;;15.20;9.68;;;14.30;90.20;;;;;;5114364;28;20043;-80
2022/11/01 02:33:48;;;;;;;18.33;9.43;;;14.30;90.20;;;;;;5097268;28;20526;-79
2022/11/01 02:36:41;;;;;;;14.00;8.45;;;14.30;90.20;;;;;;5114240;28;20043;-79
2022/11/01 02:39:16;;;;;;;13.50;9.27;;;14.30;90.20;;;;;;5097302;28;20527;-81
2022/11/01 02:42:01;;;;;;;17.10;9.18;;;14.30;90.70;;;;;;5114168;28;20123;-79
2022/11/01 02:44:32;;;;;;;14.02;8.18;;;14.30;91.00;;;;;;5114118;28;20131;-82
2022/11/01 02:47:01;;;;;;;18.83;8.90;;;14.30;90.90;;;;;;5097191;28;20071;-82
2022/11/01 02:49:42;;;;;;;15.30;8.82;;;14.30;90.60;;;;;;5097053;28;20039;-79
2022/11/01 02:52:12;;;;;;;15.68;8.95;;;14.30;90.80;;;;;;5096907;28;20074;-81
2022/11/01 02:54:41;;;;;;;15.80;9.18;;;14.30;91.40;;;;;;5113834;28;20042;-80
2022/11/01 02:57:26;;;;;;;14.40;9.13;;;14.40;91.30;;;;;;5114093;28;20043;-82
2022/11/01 02:59:52;;;;;;;19.80;9.88;;;14.30;91.20;;;;;;5113916;28;20044;-82
2022/11/01 03:02:38;;;;;;;16.67;8.63;;;14.30;91.30;;;;;;5079875;28;20105;-82
2022/11/01 03:05:16;;;;;;;16.15;8.52;;;14.30;91.20;;;;;;5096670;28;20040;-80
2022/11/01 03:07:50;;;;;;;17.25;9.05;;;14.40;91.10;;;;;;5113608;28;20036;-80
2022/11/01 03:10:18;;;;;;;12.48;7.95;;;14.40;91.10;;;;;;5113708;28;20053;-82
2022/11/01 03:13:31;;;;;;;15.77;7.78;;;14.40;91.00;;;;;;5113755;28;20044;-82
2022/11/01 03:16:10;;;;;;;12.93;8.68;;;14.50;91.30;;;;;;4999454;28;20076;-81
2022/11/01 03:18:42;;;;;;;15.15;7.95;;;14.50;91.10;;;;;;5109715;28;20127;-82
2022/11/01 03:21:17;;;;;;;11.50;7.45;;;14.50;91.30;;;;;;5096474;28;20096;-82
2022/11/01 03:24:01;;;;;;;14.95;8.50;;;14.50;91.30;;;;;;5096501;28;20480;-80
2022/11/01 03:26:33;;;;;;;10.80;7.75;;;14.60;91.60;;;;;;5113390;28;20118;-80
2022/11/01 03:29:02;;;;;;;15.68;8.88;;;14.60;91.70;;;;;;5096456;28;20484;-82
2022/11/01 03:31:32;;;;;;;11.02;7.90;;;14.60;91.70;;;;;;5095986;28;20043;-81
2022/11/01 03:34:17;;;;;;;13.18;7.43;;;14.60;91.70;;;;;;5095747;28;20055;-81
2022/11/01 03:36:50;;;;;;;11.95;7.82;;;14.60;91.90;;;;;;5096441;28;20378;-82
2022/11/01 03:39:27;;;;;;;16.08;8.32;;;14.60;91.90;;;;;;5096182;28;20047;-80
2022/11/01 03:41:57;;;;;;;14.18;7.22;;;14.60;91.80;;;;;;5112907;28;20130;-80
2022/11/01 03:44:25;;;;;;;10.80;7.70;;;14.60;91.90;;;;;;5112935;28;20505;-81
2022/11/01 03:46:51;;;;;;;12.85;7.80;;;14.60;91.70;;;;;;5112977;28;20042;-81
2022/11/01 03:49:18;;;;;;;17.45;7.82;;;14.60;92.10;;;;;;5079160;28;20036;-82
2022/11/01 03:51:44;;;;;;;14.57;8.40;;;14.60;92.10;;;;;;5095916;28;20047;-80
2022/11/01 03:54:10;;;;;;;14.55;8.23;;;14.60;92.10;;;;;;5112812;28;20079;-82
2022/11/01 03:56:39;;;;;;;9.90;6.75;;;14.60;92.20;;;;;;5095841;28;20074;-81
2022/11/01 03:59:06;;;;;;;14.00;7.90;;;14.60;92.20;;;;;;5096211;28;20082;-83
2022/11/01 04:01:32;;;;;;;18.00;8.27;;;14.70;92.10;;;;;;5112818;28;20035;-81
2022/11/01 04:03:58;;;;;;;11.98;7.00;;;14.80;92.30;;;;;;5095842;28;20405;-80
2022/11/01 04:06:24;;;;;;;11.98;7.90;;;14.80;92.10;;;;;;5078778;28;20042;-81
2022/11/01 04:08:50;;;;;;;13.15;7.45;;;14.90;92.00;;;;;;5079078;28;20054;-82
2022/11/01 04:11:16;;;;;;;14.13;8.02;;;14.90;92.00;;;;;;5078743;28;20136;-81
2022/11/01 04:13:42;;;;;;;14.18;7.70;;;14.90;92.10;;;;;;5078972;28;20133;-81
2022/11/01 04:21:38;;;;;;;13.50;9.05;;;14.90;91.90;;;;;;5098104;28;20043;-81
2022/11/01 04:24:04;;;;;;;15.05;7.85;;;14.90;91.80;;;;;;5112187;28;20072;-79
2022/11/01 04:26:30;;;;;;;9.48;6.97;;;14.90;91.90;;;;;;5078900;28;20035;-81
2022/11/01 04:28:55;;;;;;;14.30;7.97;;;15.00;91.90;;;;;;5077980;28;20031;-81
2022/11/01 04:31:27;;;;;;;14.43;8.02;;;15.00;92.00;;;;;;5112254;28;20044;-82
2022/11/01 04:33:53;;;;;;;12.88;6.88;;;15.00;92.10;;;;;;5095031;28;20063;-81
2022/11/01 04:36:19;;;;;;;10.73;7.38;;;15.00;92.10;;;;;;5078663;28;20048;-82
2022/11/01 04:38:51;;;;;;;10.63;7.60;;;15.00;91.90;;;;;;5112170;28;20604;-81
2022/11/01 04:41:21;;;;;;;13.50;7.60;;;15.00;91.90;;;;;;5112281;28;20039;-81
2022/11/01 04:43:47;;;;;;;11.90;6.35;;;15.10;91.90;;;;;;5112189;28;20035;-81
2022/11/01 04:46:14;;;;;;;10.77;5.93;;;15.10;91.80;;;;;;5095375;28;20131;-81
2022/11/01 04:48:40;;;;;;;11.07;6.28;;;15.10;91.60;;;;;;5078380;28;20127;-79
2022/11/01 04:51:07;;;;;;;9.95;5.35;;;15.10;91.30;;;;;;5112043;28;20039;-81
2022/11/01 04:53:32;;;;;;;6.70;5.00;;;15.10;91.00;;;;;;5112155;28;20044;-80
2022/11/01 04:55:59;;;;;;;8.88;4.47;;;15.10;90.60;;;;;;5078717;28;20370;-81
2022/11/01 04:58:25;;;;;;;7.00;4.18;;;15.00;90.40;;;;;;5095387;28;20047;-80
2022/11/01 05:00:51;;;;;;;4.32;2.90;;;15.00;90.40;;;;;;5078331;28;20031;-82
2022/11/01 05:03:16;;;;;;;5.85;3.00;;;15.00;89.40;;;;;;5094743;28;20494;-80
2022/11/01 05:05:42;;;;;;;6.18;3.42;;;15.00;89.70;;;;;;5078311;28;20091;-79
2022/11/01 05:08:10;;;;;;;9.50;3.17;;;15.00;89.30;;;;;;5095084;28;20084;-79
2022/11/01 05:10:38;;;;;;;5.75;2.80;;;14.90;89.50;;;;;;5111939;28;20112;-81
2022/11/01 05:13:04;;;;;;;5.00;2.22;;;14.90;88.90;;;;;;5094782;28;20047;-80
2022/11/01 05:15:30;;;;;;;8.93;1.85;;;14.90;88.60;;;;;;5078327;28;20036;-80
2022/11/01 05:17:58;;;;;;;7.93;1.90;;;14.80;88.30;;;;;;5112107;28;20126;-81
2022/11/01 05:20:24;;;;;;;5.15;1.40;;;14.70;88.00;;;;;;5078446;28;20079;-82
2022/11/01 05:22:50;;;;;;;4.70;1.92;;;14.70;88.00;;;;;;5094921;28;20079;-80
2022/11/01 05:25:16;;;;;;;3.47;1.30;;;14.50;87.90;;;;;;5111756;28;20403;-81
2022/11/01 05:27:42;;;;;;;5.47;1.60;;;14.50;87.20;;;;;;5094983;28;20043;-80
2022/11/01 05:30:09;;;;;;;9.48;1.85;;;14.50;86.90;;;;;;5078054;28;20036;-81
2022/11/01 05:32:36;;;;;;;5.78;1.40;;;14.40;86.80;;;;;;5112018;28;20043;-80
2022/11/01 05:35:03;;;;;;;4.85;1.50;;;14.30;87.10;;;;;;5095051;28;20044;-80
2022/11/01 05:37:29;;;;;;;3.97;1.20;;;14.20;87.10;;;;;;5112158;28;20040;-79
2022/11/01 05:39:55;;;;;;;3.05;1.45;;;14.20;87.30;;;;;;5094961;28;20046;-80
2022/11/01 05:42:20;;;;;;;3.03;0.95;;;14.20;87.30;;;;;;5081561;28;20044;-79
2022/11/01 05:44:46;;;;;;;6.53;1.23;;;14.20;84.70;;;;;;5098270;28;20035;-80
2022/11/01 05:47:12;;;;;;;5.15;1.25;;;14.30;84.90;;;;;;5098600;28;20046;-79
2022/11/01 05:49:37;;;;;;;9.88;1.98;;;14.30;83.70;;;;;;5098293;28;20069;-79
2022/11/01 05:52:03;;;;;;;5.07;2.17;;;14.20;83.50;;;;;;5098215;28;20047;-80
2022/11/01 05:54:29;;;;;;;4.35;1.30;;;14.30;83.50;;;;;;5081488;28;20050;-79
2022/11/01 05:56:54;;;;;;;4.78;1.27;;;14.30;83.70;;;;;;5098513;28;20043;-80
2022/11/01 05:59:20;;;;;;;7.22;1.60;;;14.20;84.00;;;;;;5114979;28;20400;-79
2022/11/01 06:01:46;;;;;;;2.92;1.33;;;14.20;85.10;;;;;;5114858;28;20048;-80
2022/11/01 06:04:11;;;;;;;4.32;1.40;;;14.20;85.70;;;;;;5081960;28;20047;-80
2022/11/01 06:06:37;;;;;;;7.50;2.47;;;14.10;86.10;;;;;;5099827;28;20043;-80
2022/11/01 06:09:03;;;;;;;5.78;1.60;;;14.00;85.50;;;;;;5083892;28;20082;-79
2022/11/01 06:11:29;;;;;;;6.32;1.40;;;13.90;84.30;;;;;;5098183;28;20719;-80
2022/11/01 06:13:55;;;;;;;6.70;1.50;;;13.90;83.50;;;;;;5082239;28;20036;-79
2022/11/01 06:16:22;;;;;;;11.20;2.95;;;14.00;82.90;;;;;;5081104;28;20063;-79
2022/11/01 06:18:48;;;;;;;6.78;1.52;;;13.90;82.30;;;;;;5097919;28;20078;-81
2022/11/01 06:21:15;;;;;;;7.95;2.20;;;13.90;82.70;;;;;;5081014;28;20092;-80
2022/11/01 06:23:41;;;;;;;10.63;2.05;;;13.90;80.90;;;;;;5114465;28;20032;-79
2022/11/01 06:26:06;;;;;;;5.72;2.40;;;13.90;81.70;;;;;;5114619;28;20039;-81
2022/11/01 06:28:32;;;;;;;9.13;1.90;;;13.90;82.60;;;;;;5080503;28;20138;-80
2022/11/01 06:31:02;;;;;;;9.45;1.90;;;13.80;84.30;;;;;;5114437;28;20104;-80
2022/11/01 06:33:29;;;;;;;8.25;1.65;;;13.80;84.30;;;;;;5113672;28;20048;-80
2022/11/01 06:35:55;;;;;;;8.75;1.70;;;13.70;83.70;;;;;;5096904;28;20040;-79
2022/11/01 06:38:21;;;;;;;9.65;1.98;;;13.70;82.00;;;;;;5079815;28;20047;-81
2022/11/01 06:40:47;;;;;;;13.82;2.40;;;13.80;82.00;;;;;;5113687;28;20042;-81
2022/11/01 06:43:13;;;;;;;13.10;2.50;;;13.70;80.90;;;;;;5096871;28;20046;-78
2022/11/01 06:45:39;;;;;;;9.63;1.63;;;13.80;80.90;;;;;;5096758;28;20036;-80
2022/11/01 06:48:05;;;;;;;13.85;2.58;;;13.80;80.30;;;;;;5096992;28;20049;-76
2022/11/01 06:50:31;;;;;;;10.82;2.50;;;13.80;80.40;;;;;;5113162;28;20035;-79
2022/11/01 06:52:58;;;;;;;7.43;2.30;;;13.90;79.90;;;;;;5102156;28;20093;-78
2022/11/01 06:55:25;;;;;;;8.20;1.90;;;13.80;79.50;;;;;;5085515;28;20126;-79
2022/11/01 06:58:09;;;;;;;14.07;2.30;;;13.90;79.20;;;;;;5102021;28;20051;-78
2022/11/01 07:00:34;;;;;;;11.68;2.13;;;13.80;79.20;;;;;;5082230;28;20044;-78
2022/11/01 07:03:03;;;;;;;10.00;1.83;;;13.80;79.40;;;;;;5092730;28;20191;-77
2022/11/01 07:05:31;;;;;;;8.88;2.22;;;13.80;78.70;;;;;;5076547;28;20075;-77
2022/11/01 07:07:57;;;;;;;10.52;2.22;;;13.80;79.20;;;;;;5076757;28;20485;-78
2022/11/01 07:10:23;;;;;;;10.45;2.28;;;13.80;79.10;;;;;;5113887;28;20043;-78
2022/11/01 07:12:49;;;;;;;8.90;2.03;;;13.80;79.00;;;;;;5113187;28;20043;-79
2022/11/01 07:15:14;;;;;;;8.50;2.42;;;13.80;78.70;;;;;;5113635;28;20070;-77
2022/11/01 07:17:40;;;;;;;11.13;1.98;;;13.80;77.80;;;;;;5113603;28;20084;-77
2022/11/01 07:20:07;;;;;;;9.00;2.65;;;13.80;78.10;;;;;;5079997;28;20036;-77
2022/11/01 07:22:32;;;;;;;11.27;2.92;;;13.80;78.40;;;;;;5096739;28;20039;-80
2022/11/01 07:24:58;;;;;;;8.07;2.42;;;13.80;78.30;;;;;;5097053;28;20181;-79
2022/11/01 07:27:24;;;;;;;10.30;2.45;;;13.80;77.80;;;;;;5096970;28;20378;-79
2022/11/01 07:29:50;;;;;;;9.15;2.33;;;13.80;77.70;;;;;;5097078;28;20084;-78
2022/11/01 07:32:15;;;;;;;10.25;2.45;;;13.80;78.10;;;;;;5096895;28;20039;-80
2022/11/01 07:34:41;;;;;;;10.18;2.45;;;13.80;78.20;;;;;;5079502;28;20052;-79
2022/11/01 07:37:07;;;;;;;14.63;3.67;;;13.90;78.00;;;;;;5096533;28;20056;-79
2022/11/01 07:39:32;;;;;;;12.75;2.78;;;13.80;78.30;;;;;;5079789;28;20080;-78
2022/11/01 07:41:58;;;;;;;17.98;3.63;;;13.80;78.80;;;;;;5096582;28;20046;-80
2022/11/01 07:44:24;;;;;;;12.00;2.80;;;13.90;78.20;;;;;;5113300;28;20122;-79
2022/11/01 07:46:49;;;;;;;12.35;2.40;;;13.90;77.90;;;;;;5113302;28;20400;-79
2022/11/01 07:49:15;;;;;;;25.88;4.50;;;13.90;78.30;;;;;;5096367;28;20081;-79
2022/11/01 07:51:41;;;;;;;17.48;3.35;;;13.90;78.10;;;;;;5079348;28;20040;-80
2022/11/01 07:54:06;;;;;;;20.33;3.70;;;13.90;77.70;;;;;;5096587;28;20040;-79
2022/11/01 07:56:32;;;;;;;15.88;3.83;;;14.00;78.00;;;;;;5113473;28;20083;-78
2022/11/01 07:58:58;;;;;;;13.23;2.95;;;14.00;77.20;;;;;;5096476;28;20500;-81
2022/11/01 08:01:24;;;;;;;13.57;3.33;;;14.00;76.20;;;;;;5096433;28;20040;-79
2022/11/01 08:03:49;;;;;;;10.80;2.95;;;14.00;76.60;;;;;;5095833;28;20035;-79
2022/11/01 08:06:15;;;;;;;19.08;4.53;;;14.00;76.30;;;;;;5079233;28;20145;-79
2022/11/01 08:08:41;;;;;;;16.13;3.53;;;14.00;76.70;;;;;;5079199;28;20493;-80
2022/11/01 08:11:07;;;;;;;15.40;3.45;;;14.00;76.80;;;;;;5095714;28;20040;-80
2022/11/01 08:13:32;;;;;;;11.63;3.20;;;14.00;76.60;;;;;;5113051;28;20044;-81
2022/11/01 08:16:01;;;;;;;17.00;2.97;;;14.00;77.00;;;;;;5079217;28;20502;-80
2022/11/01 08:18:27;;;;;;;16.75;3.90;;;14.00;76.70;;;;;;5095943;28;20046;-80
2022/11/01 08:20:52;;;;;;;26.90;4.83;;;13.90;77.40;;;;;;5079002;28;20044;-81
2022/11/01 08:23:18;;;;;;;18.45;3.22;;;13.90;78.00;;;;;;5112888;28;20071;-80
2022/11/01 08:25:44;;;;;;;13.32;2.97;;;13.90;77.80;;;;;;5079406;28;20122;-80
2022/11/01 08:28:13;;;;;;;15.68;3.38;;;14.00;77.70;;;;;;5078916;28;20056;-78
2022/11/01 08:30:41;;;;;;;19.00;4.63;;;14.00;77.70;;;;;;5113035;28;20392;-78
2022/11/01 08:33:07;;;;;;;14.00;3.63;;;13.90;77.80;;;;;;5112242;28;20462;-77
2022/11/01 08:35:34;;;;;;;13.60;3.80;;;14.00;77.50;;;;;;5096029;28;20108;-76
2022/11/01 08:38:02;;;;;;;12.93;3.55;;;14.00;78.30;;;;;;5112504;28;20051;-77
2022/11/01 08:40:28;;;;;;;13.25;4.75;;;13.90;78.60;;;;;;5095646;28;20490;-77
2022/11/01 08:42:54;;;;;;;26.10;4.60;;;13.90;79.20;;;;;;5112203;28;20515;-77
2022/11/01 08:45:20;;;;;;;14.43;4.53;;;13.90;79.20;;;;;;5112323;28;20439;-77
2022/11/01 08:47:45;;;;;;;16.15;3.38;;;13.80;79.50;;;;;;5095175;28;20032;-76
2022/11/01 08:50:14;;;;;;;15.38;3.65;;;13.90;79.50;;;;;;5112190;28;20063;-77
2022/11/01 08:52:40;;;;;;;12.95;2.97;;;13.80;79.40;;;;;;5112253;28;20043;-77
2022/11/01 08:55:08;;;;;;;11.95;3.08;;;13.90;79.50;;;;;;5112355;28;20092;-78
2022/11/01 08:57:34;;;;;;;12.40;3.17;;;14.00;79.90;;;;;;5095424;28;20036;-77
2022/11/01 09:00:00;;;;;;;20.25;3.75;;;14.00;79.50;;;;;;5095356;28;20176;-78
2022/11/01 09:02:25;;;;;;;13.90;3.42;;;14.00;80.00;;;;;;5078499;28;20079;-77
2022/11/01 09:04:51;;;;;;;16.15;3.55;;;14.00;80.10;;;;;;5112176;28;20407;-78
2022/11/01 09:07:17;;;;;;;15.40;3.85;;;14.10;79.70;;;;;;5095681;28;20028;-78
2022/11/01 09:09:43;;;;;;;19.95;3.88;;;14.10;80.20;;;;;;5095438;28;20040;-78
2022/11/01 09:12:11;;;;;;;12.60;3.47;;;14.10;79.80;;;;;;5112228;28;20101;-77
2022/11/01 09:14:36;;;;;;;16.38;4.28;;;14.20;79.70;;;;;;5096586;28;20130;-77
2022/11/01 09:17:02;;;;;;;13.07;3.80;;;14.20;79.80;;;;;;5116170;28;20119;-77
2022/11/01 09:19:28;;;;;;;13.02;3.05;;;14.20;80.10;;;;;;5116374;28;20039;-77
2022/11/01 09:21:54;;;;;;;16.73;2.88;;;14.20;80.00;;;;;;5116046;28;20048;-77
2022/11/01 09:24:19;;;;;;;19.00;3.55;;;14.20;80.10;;;;;;5082116;28;20039;-78
2022/11/01 09:26:45;;;;;;;13.85;3.40;;;14.20;80.30;;;;;;5099374;28;20035;-77
2022/11/01 09:29:11;;;;;;;16.50;3.58;;;14.10;80.50;;;;;;5116010;28;20032;-76
2022/11/01 09:31:37;;;;;;;20.23;3.78;;;14.10;80.40;;;;;;5082134;28;20105;-76
2022/11/01 09:34:02;;;;;;;15.88;3.30;;;14.10;80.60;;;;;;5115241;28;20051;-78
2022/11/01 09:36:29;;;;;;;18.95;4.53;;;14.10;81.10;;;;;;5098892;28;20035;-78
2022/11/01 09:38:55;;;;;;;15.85;4.30;;;14.10;81.40;;;;;;5098469;28;20047;-78
2022/11/01 09:41:44;;;;;;;22.70;5.05;;;14.10;81.80;;;;;;5116056;28;20039;-77
2022/11/01 09:44:16;;;;;;;13.52;3.92;;;14.30;81.80;;;;;;5115938;28;20485;-77
2022/11/01 09:46:55;;;;;;;21.40;3.17;;;14.30;82.20;;;;;;5106151;28;20040;-77
2022/11/01 09:49:25;;;;;;;17.42;3.53;;;14.30;81.20;;;;;;5100481;28;20043;-77
2022/11/01 09:51:51;;;;;;;19.42;4.40;;;14.30;80.90;;;;;;5113247;28;20078;-78
2022/11/01 09:54:21;;;;;;;15.48;4.28;;;14.30;81.00;;;;;;5098683;28;20066;-77
2022/11/01 09:57:12;;;;;;;15.50;3.25;;;14.20;81.80;;;;;;5115441;28;20119;-78
2022/11/01 09:59:47;;;;;;;8.63;2.67;;;14.20;82.60;;;;;;5115370;28;20535;-78
2022/11/01 10:02:35;;;;;;;14.48;3.67;;;14.10;81.90;;;;;;5115487;28;20083;-78
2022/11/01 10:05:19;;;;;;;12.82;3.20;;;14.30;81.40;;;;;;5077915;28;20032;-77
2022/11/01 10:07:53;;;;;;;13.30;3.15;;;14.30;81.40;;;;;;5095136;28;20028;-78
2022/11/01 10:10:43;;;;;;;15.65;2.95;;;14.30;81.50;;;;;;5095319;28;20455;-76
2022/11/01 10:13:39;;;;;;;13.82;3.05;;;14.40;81.20;;;;;;5094745;28;20051;-79
2022/11/01 10:16:18;;;;;;;13.93;3.40;;;14.50;80.50;;;;;;5077862;28;20046;-79
2022/11/01 10:19:20;;;;;;;12.68;3.78;;;14.50;80.40;;;;;;5077920;28;20485;-80
2022/11/01 10:21:52;;;;;;;13.05;4.13;;;14.80;79.80;;;;;;5071563;28;20513;-78
2022/11/01 10:24:20;;;;;;;14.38;3.95;;;14.80;79.70;;;;;;5077973;28;20113;-80
2022/11/01 10:26:52;;;;;;;13.48;3.22;;;14.80;79.60;;;;;;5094353;28;20381;-79
2022/11/01 10:29:26;;;;;;;9.98;2.92;;;14.50;80.00;;;;;;5077594;28;20683;-78
2022/11/01 10:31:53;;;;;;;;;;;14.50;80.10;;;;;;5077939;28;20039;-80
2022/11/01 10:34:31;;;;;;;14.70;3.33;;;14.50;80.20;;;;;;5094156;28;20004;-79
2022/11/01 10:37:12;;;;;;;16.35;3.20;;;14.60;80.10;;;;;;5094114;28;20051;-79
2022/11/01 10:39:54;;;;;;;17.60;4.05;;;14.50;79.90;;;;;;5094040;28;20096;-79
2022/11/01 10:42:20;;;;;;;10.43;2.03;;;14.40;80.20;;;;;;5077032;28;20075;-79
2022/11/01 10:44:54;;;;;;;18.63;4.05;;;14.50;80.60;;;;;;5094089;28;20188;-80
2022/11/01 10:47:21;;;;;;;8.95;3.08;;;14.30;80.60;;;;;;5094017;28;20040;-79
2022/11/01 10:49:53;;;;;;;18.38;3.80;;;14.20;80.40;;;;;;5060353;28;20039;-77
2022/11/01 10:52:30;;;;;;;16.25;2.63;;;14.10;81.20;;;;;;5077237;28;20518;-80
2022/11/01 10:54:58;;;;;;;15.90;2.80;;;14.20;81.00;;;;;;5093889;28;20044;-80
2022/11/01 10:57:45;;;;;;;11.30;2.67;;;14.20;81.00;;;;;;5076791;28;20051;-79
2022/11/01 11:00:17;;;;;;;16.58;3.60;;;14.30;81.40;;;;;;5093800;28;20035;-79
2022/11/01 11:02:48;;;;;;;13.07;2.95;;;14.30;81.00;;;;;;5093817;28;20477;-79
2022/11/01 11:05:14;;;;;;;15.23;3.42;;;14.20;81.40;;;;;;5076612;28;20040;-79
2022/11/01 11:07:41;;;;;;;22.75;4.57;;;14.20;81.90;;;;;;5077042;28;20443;-79
2022/11/01 11:10:25;;;;;;;13.15;3.30;;;14.30;81.70;;;;;;5059709;28;20032;-79
2022/11/01 11:13:04;;;;;;;;;;;14.20;82.00;;;;;;5093959;28;20043;-80
2022/11/01 11:16:03;;;;;;;13.02;2.95;;;14.30;82.40;;;;;;5076518;28;19936;-79
2022/11/01 11:18:34;;;;;;;15.50;3.88;;;14.30;82.00;;;;;;5074802;28;20519;-79
2022/11/01 11:21:07;;;;;;;13.68;3.60;;;14.40;82.40;;;;;;5076106;28;20097;-79
2022/11/01 11:23:38;;;;;;;16.83;3.60;;;14.50;82.20;;;;;;5076231;28;20497;-80
2022/11/01 11:26:07;;;;;;;9.93;2.80;;;14.60;82.10;;;;;;5093208;28;20089;-79
2022/11/01 11:28:41;;;;;;;14.82;2.78;;;14.90;81.40;;;;;;5093585;28;20462;-79
2022/11/01 11:31:24;;;;;;;;;;;15.00;80.80;;;;;;5080453;28;20127;-78
2022/11/01 11:33:55;;;;;;;16.02;3.88;;;15.10;80.60;;;;;;5102888;28;19976;-79
2022/11/01 11:36:36;;;;;;;14.45;3.78;;;15.20;80.20;;;;;;5099465;28;20043;-79
2022/11/01 11:39:03;;;;;;;16.30;3.38;;;15.30;79.70;;;;;;5095395;28;20044;-78
2022/11/01 11:41:37;;;;;;;12.05;2.95;;;15.30;79.80;;;;;;5099654;28;20040;-79
2022/11/01 11:44:38;;;;;;;10.88;2.75;;;15.00;80.20;;;;;;5076332;28;20075;-79
2022/11/01 11:47:04;;;;;;;15.70;4.05;;;15.00;79.80;;;;;;5092745;28;20044;-80
2022/11/01 11:49:31;;;;;;;14.52;3.25;;;15.20;80.00;;;;;;5059305;28;20059;-78
2022/11/01 11:51:57;;;;;;;19.02;3.50;;;15.30;79.30;;;;;;5075811;28;20069;-79
2022/11/01 11:54:33;;;;;;;17.02;3.00;;;15.50;79.50;;;;;;5075857;28;20123;-80
2022/11/01 11:57:19;;;;;;;19.42;2.55;;;15.60;79.00;;;;;;5092794;28;20448;-79
2022/11/01 11:59:50;;;;;;;13.00;2.33;;;15.80;78.00;;;;;;5075756;28;20123;-79
2022/11/01 12:02:29;;;;;;;14.65;4.15;;;15.60;77.50;;;;;;5075455;28;20040;-79
2022/11/01 12:05:07;;;;;;;9.02;3.00;;;15.50;78.20;;;;;;5075689;28;20040;-80
2022/11/01 12:07:44;;;;;;;12.55;3.72;;;15.40;78.40;;;;;;5092625;28;20197;-79
2022/11/01 12:10:33;;;;;;;11.27;2.58;;;15.40;78.70;;;;;;5092426;28;20401;-79
2022/11/01 12:13:00;;;;;;;17.55;3.90;;;15.60;78.50;;;;;;5075258;28;20058;-79
2022/11/01 12:15:28;;;;;;;13.85;3.97;;;15.90;78.60;;;;;;5092365;28;20090;-80
2022/11/01 12:17:55;;;;;;;10.07;3.00;;;16.00;78.00;;;;;;5092501;28;20062;-79
2022/11/01 12:20:23;;;;;;;20.60;4.32;;;16.00;77.50;;;;;;5058881;28;20043;-80
2022/11/01 12:23:13;;;;;;;12.25;3.45;;;16.10;77.50;;;;;;5091940;28;20040;-80
2022/11/01 12:25:41;;;;;;;12.15;2.92;;;16.20;77.20;;;;;;5092455;28;20032;-80
2022/11/01 12:28:46;;;;;;;10.55;3.38;;;16.10;77.30;;;;;;5091985;28;20081;-80
2022/11/01 12:31:18;;;;;;;15.53;3.30;;;16.00;77.10;;;;;;4994666;28;20038;-79
2022/11/01 12:33:53;;;;;;;24.70;3.15;;;16.00;77.20;;;;;;5061038;28;20561;-79
2022/11/01 12:36:29;;;;;;;16.77;3.22;;;15.80;78.10;;;;;;5092033;28;20044;-79
2022/11/01 12:39:06;;;;;;;13.52;3.08;;;15.80;78.30;;;;;;5091861;28;20477;-79
2022/11/01 12:41:45;;;;;;;8.98;2.58;;;16.00;78.70;;;;;;5091741;28;20036;-79
2022/11/01 12:44:31;;;;;;;15.05;3.45;;;16.30;78.40;;;;;;5091902;28;20044;-79
2022/11/01 12:47:12;;;;;;;12.45;2.88;;;16.40;77.60;;;;;;5092066;28;20428;-79
2022/11/01 12:49:51;;;;;;;14.10;2.95;;;16.50;77.20;;;;;;5093006;28;20039;-80
2022/11/01 12:52:21;;;;;;;9.10;2.67;;;16.70;76.90;;;;;;5096195;28;20052;-79
2022/11/01 12:55:00;;;;;;;12.70;3.08;;;16.70;76.70;;;;;;5096255;28;20059;-79
2022/11/01 12:57:27;;;;;;;12.82;3.00;;;16.60;76.00;;;;;;5079169;28;20186;-79
2022/11/01 12:59:53;;;;;;;14.35;4.03;;;16.70;75.50;;;;;;5095737;28;20130;-79
2022/11/01 13:02:44;;;;;;;12.20;2.92;;;16.80;75.90;;;;;;5062038;28;20127;-79